GGOV

Details ICAO GGOV (OXB)
Name BISSAU OSWALDO VIEIRA INTL
Region Guinea Bissau
Timezone Africa/Bissau (UTC+0.0)
Plans Departing 43
Arriving 54
Stats Elevation 129 ft / 39 m (AMSL)
Location 11.890166° -15.648833°
Runways 1
Magnetic Variation 7.190° W
Sunrise 2018-05-26 06:38:45 UTC / 2018-05-26 06:38:45 Local
Sunset 2018-05-26 19:23:24 UTC / 2018-05-26 19:23:24 Local
Advertisement - Login to hide

Runways

ID Width Length Bearing (true) Bearing (mag) Surface Threshold Offset Overrun Length
03 148 ft / 45 m 10,509 ft / 3,203 m 22.10° 29.29° Asphalt 0 ft / 0 m 1,312 ft / 400 m
21 148 ft / 45 m 10,509 ft / 3,203 m 202.10° 209.29° Asphalt 0 ft / 0 m 656 ft / 200 m

Map

Weather


0- 5 10 15 20 25 30 35+ Temperature / ° C

Clouds and Precipitation
Forecast for 2018-05-26 06:00 UTC. Updated 3 hours ago

Ground ~20,000 ft ~40,000 ft Winds

METAR

GGOV 260800Z 27003KT 8000 FEW014 22/19 Q1012 NOSIG

TAF

TAF GGOV 252300Z 2600/2624 24010KT CAVOK= TAF GQPP 252300Z 2600/2624 36016KT 7000 NSC PROB30 TEMPO 2614/2620 4000 DRSA

Frequencies

Tower 124.30 MHz TWR
Approach 124.30 MHz APP
Approach 123.90 MHz APP
Warning: Do not use this data for real-world aviation or navigation. No guarantee of current accuracy is given.